x

South Brooks (46132) Wave Buoy

5:00pm - Tue 24th May 2016 All times are PDT. -7 hours from GMT.

  • Sig Wave height 7.9ft
  • Peak Period 10s
  • Wind
    27mph, 31mph gusts
  • Sea Temp 52°f
  • 空気 Temp 54°f
  • Sea Pressure 1016.6mb
  • South Brooks
  • South Brooks

More Historic Weather Station data

Upgrade to MSW Pro to gain access to the past 30 days of data for over 8000 Wavebouys and Weather Stations around the globe.

Join Pro

Comparision Forecast

View Surf forecast
   
Tue 05/24 5:00pm 8ft 10s 27 31 mph 1016.6mb 52f 54f
4:00pm 7.5ft 9s 27 31 mph 1016.6mb 53f 53f
3:00pm 7ft 9s 25 31 mph 1016.7mb 53f 54f
2:00pm 7ft 9s 27 31 mph 1016.7mb 53f 54f
1:00pm 6.5ft 10s 25 29 mph 1016.5mb 53f 54f
12:00pm 7ft 9s 22 29 mph 1016.4mb 53f 54f
11:00am 6.5ft 10s 22 27 mph 1016.3mb 53f 54f
10:00am 7ft 10s 22 27 mph 1015.8mb 53f 54f
9:00am 6.5ft 10s 25 27 mph 1015.7mb 54f 53f
8:00am 7ft 8s 22 27 mph 1015.6mb 53f 53f
7:00am 6.5ft 10s 18 25 mph 1015.3mb 53f 53f
6:00am 7ft 10s 20 25 mph 1015mb 53f 53f
5:00am 7ft 9s 20 27 mph 1014.9mb 53f 53f
4:00am 6.5ft 10s 20 25 mph 1014.6mb 53f 53f
3:00am 6.5ft 9s 22 27 mph 1014.4mb 52f 53f
2:00am 7ft 10s 20 25 mph 1014.5mb 52f 53f
1:00am 6ft 9s 22 29 mph 1014.7mb 52f 53f
12:00am 6.5ft 10s 22 27 mph 1014.9mb 52f 53f
Mon 05/23 11:00pm 5.5ft 10s 22 27 mph 1014.9mb 52f 53f
10:00pm 5.5ft 9s 22 25 mph 1014.9mb 52f 54f
9:00pm 6.5ft 9s 20 25 mph 1014.8mb 52f 54f
8:00pm 6ft 10s 25 29 mph 1014.5mb 54f 55f
7:00pm 7ft 10s 22 27 mph 1014.5mb 54f 55f
6:00pm 7ft 9s 22 27 mph 1014.6mb 54f 55f
5:00pm 7ft 9s 22 27 mph 1014.6mb 54f 55f
4:00pm 6.5ft 10s 22 25 mph 1014.8mb 53f 55f
3:00pm 6.5ft 10s 22 27 mph 1014.7mb 54f 54f
2:00pm 7ft 10s 20 25 mph 1014.6mb 55f 54f
1:00pm 6ft 10s 20 25 mph 1014.3mb 55f 55f
12:00pm 6ft 9s 18 20 mph 1014.2mb 54f 55f
11:00am 7ft 10s 16 20 mph 1014.3mb 54f 55f
10:00am 6ft 9s 13 18 mph 1014.5mb 54f 54f
9:00am 5.5ft 10s 13 16 mph 1014.4mb 54f 54f
8:00am 6ft 9s 13 16 mph 1014.4mb 54f 55f
7:00am 6ft 10s 11 13 mph 1014.2mb 54f 54f
6:00am 6ft 9s 11 16 mph 1014.1mb 54f 54f
5:00am 6ft 9s 13 16 mph 1014mb 54f 54f
4:00am 6ft 9s 11 13 mph 1013.9mb 54f 54f
3:00am 6ft 10s 13 16 mph 1013.6mb 54f 54f
2:00am 6ft 10s 11 13 mph 1013.7mb 54f 54f
1:00am 6ft 10s 9 11 mph 1013.8mb 54f 55f
12:00am 7ft 8s 11 13 mph 1013.9mb 54f 55f
Sun 05/22 11:00pm 6.5ft 9s 7
mph
1014mb 54f 55f
10:00pm 6ft 9s 4 7 mph 1013.8mb 54f 55f
9:00pm 6ft 9s 7 9 mph 1013.5mb 55f 55f
8:00pm 5ft 8s 4
mph
1013.6mb 55f 55f
7:00pm 5ft 8s 2 4 mph 1013.5mb 55f 56f
6:00pm 5ft 8s 2 4 mph 1013.2mb 55f 56f
5:00pm 5ft 8s 4 7 mph 1013mb 55f 56f
4:00pm 5ft 8s 7 9 mph 1012.9mb 55f 56f
3:00pm 4.5ft 8s 9 11 mph 1012.6mb 55f 55f
2:00pm 4.5ft 8s 11 16 mph 1012.3mb 55f 55f
1:00pm 4.5ft 8s 11 13 mph 1012.1mb 55f 55f
12:00pm 4ft 7s 7 9 mph 1012.2mb 54f 55f
11:00am 4ft 8s 4
mph
1012.2mb 54f 55f
10:00am 4ft 8s 4 7 mph 1012mb 53f 55f
9:00am 4ft 8s 9 13 mph 1011.6mb 53f 56f
8:00am 3.5ft 7s 11 13 mph 1011.3mb 53f 54f
7:00am 4ft 8s 9 11 mph 1011.1mb 53f 53f
6:00am 4ft 8s 7 9 mph 1010.7mb 53f 53f
5:00am 4ft 8s 4 9 mph 1010.4mb 53f 53f
4:00am 4ft 7s 7 9 mph 1010mb 52f 53f
3:00am 4.5ft 8s 2 4 mph 1010.1mb 53f 53f
2:00am 4ft 8s  -  mph 1010.2mb 52f 52f
1:00am 4.5ft 8s  -  2 mph 1010.3mb 52f 53f
12:00am 4.5ft 8s 2
mph
1010.4mb 52f 53f
Sat 05/21 11:00pm 4.5ft 8s 2 4 mph 1010.2mb 52f 53f
10:00pm 4.5ft 8s 4 9 mph 1009.8mb 52f 54f
9:00pm 4.5ft 8s 13 16 mph 1009mb 52f 53f
8:00pm 5ft 8s 13 18 mph 1009mb 52f 53f
7:00pm 4.5ft 8s 16 20 mph 1008.4mb 52f 54f
6:00pm 5ft 8s 18 22 mph 1007.7mb 53f 54f
5:00pm 5ft 8s 20 22 mph 1007.5mb 53f 54f
4:00pm 4.5ft 9s 13 18 mph 1007.8mb 53f 55f
3:00pm 5ft 8s 13 16 mph 1007.7mb 53f 55f
2:00pm 5ft 8s 18 20 mph 1007.6mb 53f 55f
1:00pm 5ft 8s 13 16 mph 1007.5mb 53f 55f
12:00pm 5ft 9s 16 18 mph 1007.7mb 53f 55f
11:00am 5ft 8s 11 13 mph 1007.7mb 53f 54f
10:00am 5ft 9s 9 11 mph 1007.8mb 53f 54f
9:00am 5ft 9s 7 9 mph 1007.7mb 52f 54f
8:00am 5ft 8s 11 13 mph 1007.8mb 52f 54f
7:00am 5ft 8s 13 16 mph 1007.9mb 52f 54f
6:00am 5ft 8s 13 16 mph 1008mb 51f 54f
5:00am 5.5ft 8s 11 13 mph 1008.3mb 52f 54f
4:00am 5.5ft 9s 11 16 mph 1008.5mb 52f 54f
3:00am 6ft 9s 11 13 mph 1008.8mb 52f 54f
2:00am 6ft 9s 7
mph
1009.3mb 52f 54f